TAF KSSF
AMD KSSF 280949Z 2810/2906 30006KT 6SM BR OVC004 TEMPO 2810/2814 2SM BR OVC002 FM281400 35006KT 6SM BR BKN010 FM281600 36009KT P6SM SCT040 SCT250 FM282200 03006KT P6SM FEW250=
METAR KSSF
WC KSSF
WS KSSF
WV KSSF